Back to Top
Banner_Quays_at_Mast_2020.jpeg
Banner_VERITY.jpeg
Banner_P42_Kinsale_2004.jpeg
Superyacht_SCOUT.jpg
Kinsale_Trawlers_Banner.jpeg
previous arrow
next arrow

Port Arrivals Report (AIS)

This report is generated from collected AIS (Automated Identification System) signals from vessels entering port.

IMO MMSI Class Flag Vessel Name Vessel type Nav Status Destination Call Sign Latitude Longitude Speed (kts) Course (T) Draught (m) LOA (m) Beam (m) Timestamp
0 269528000 B CH SAILING SWISS SAILING. - HBY2191 51.6892 -8.4998 5.6 355 0 12 4 2024-06-12 15:09:24
0 203255100 B AT - - 51.6877 -8.49903 5.8 350.3 0 0 0 2024-06-12 15:03:12
0 227956850 B FR GUS SAILING. - FAG6150 51.6878 -8.49772 5.3 7.4 0 13 4 2024-06-12 14:29:19
0 250003953 B IE ALICE AGAIN FISHING. - EI8857 51.6882 -8.49815 6.6 333.5 0 10 4 2024-06-12 13:58:48
250184000 250184000 B IE STELLA MARIS FISHING. Engaged in Fishing FISHING GROUNDS EI5775 51.6877 -8.49813 5.1 354.2 4.6 22 8 2024-06-12 13:15:01
0 235097035 B GB MORAR LASS SAILING. - MSTD2 51.6871 -8.49876 5 355 0 11 4 2024-06-12 13:02:24
0 235067345 B GB HIGH SPIRITS SAILING. - MDHP5 51.6876 -8.49936 4.1 11.1 0 9 3 2024-06-12 12:40:33
0 235092951 B GB KIKA Pleasure craft - 2BZD 51.688 -8.50013 3.9 356.2 0 11 3 2024-06-12 12:23:03
1012816 319154100 A KY SCOUT Pleasure craft - IEKLN ZGIH 51.6891 -8.4971 6.3 339.1 3.5 64 12 2024-06-12 07:36:43
0 250014243 B IE PRIVATEER SAILING. - EIA2708 51.6871 -8.50063 7.9 348.7 0 12 4 2024-06-12 07:35:20
0 228137350 B FR FLYER SAILING. - FAJ8265 51.6877 -8.49987 3.8 353.8 0 11 3 2024-06-12 01:48:47
0 250003764 B IE MICHELLE FISHING. - EI-8817 51.6877 -8.49995 6.6 355.4 0 10 4 2024-06-11 22:01:11
0 232016609 B GB RNLI LIFEBOAT B-909 SAR. - 51.6886 -8.49643 36.3 341 0 8 2 2024-06-11 20:14:53
0 235065557 B GB KEMOSABE SAILING. - 2BEY3 51.6872 -8.49862 5 7.9 0 11 3 2024-06-11 19:33:25
0 250013607 B IE DRUMLIN SAILING. - EIA2063 51.688 -8.49844 4.5 358.1 0 10 4 2024-06-11 18:36:04
0 232004138 B GB BRILLIANT SAILING. - MZDG3 51.6871 -8.49907 6 347.9 0 11 3 2024-06-11 17:15:50
0 250005625 B IE SPIRAL MOON II SAILING. - EI-VN-7 51.6881 -8.4992 6.5 359.1 0 10 4 2024-06-11 17:05:37
0 232052286 B GB OLD FASHIONED Pleasure craft - MOPM3 51.6877 -8.49839 4.3 336 0 11 4 2024-06-11 15:55:37
0 228204870 B FR CHINA CLIPPER SAILING. - FAK7429 51.6872 -8.49993 5.2 355 0 15 4 2024-06-11 14:51:06
0 232016018 B GB - - 51.6881 -8.50017 3.9 351.5 0 0 0 2024-06-11 14:28:47